createdAt,value
2023-03-06T00:00:29.998Z,550.00
2023-03-06T00:01:30.070Z,551.00
2023-03-06T00:02:30.120Z,554.00
2023-03-06T00:03:30.232Z,554.00
2023-03-06T00:04:30.258Z,553.00
2023-03-06T00:05:30.339Z,555.00
2023-03-06T00:06:30.372Z,555.00
2023-03-06T00:07:30.484Z,553.00
2023-03-06T00:08:30.500Z,556.00
2023-03-06T00:09:30.563Z,556.00
2023-03-06T00:10:30.629Z,557.00
2023-03-06T00:11:31.446Z,559.00
2023-03-06T02:04:38.061Z,549.00
2023-03-06T02:14:37.745Z,549.00
2023-03-06T02:15:37.784Z,546.00
2023-03-06T02:16:37.911Z,546.00
2023-03-06T02:17:37.854Z,544.00
2023-03-06T02:18:37.894Z,543.00
2023-03-06T02:19:37.926Z,544.00
2023-03-06T02:20:38.046Z,547.00
2023-03-06T02:21:37.990Z,548.00
2023-03-06T02:22:38.038Z,547.00
2023-03-06T02:23:38.149Z,547.00
2023-03-06T02:24:38.119Z,549.00
2023-03-06T02:25:38.152Z,547.00
2023-03-06T02:26:38.179Z,545.00
2023-03-06T02:27:38.220Z,544.00
2023-03-06T02:28:38.261Z,541.00
2023-03-06T02:29:38.311Z,542.00
2023-03-06T02:30:38.393Z,540.00
2023-03-06T02:31:38.382Z,540.00
2023-03-06T02:32:38.467Z,541.00
2023-03-06T02:45:38.900Z,542.00
2023-03-06T02:46:38.936Z,546.00
2023-03-06T02:47:39.097Z,545.00
2023-03-06T02:48:38.990Z,544.00
2023-03-06T02:49:39.025Z,546.00
2023-03-06T02:50:39.061Z,549.00
2023-03-06T02:51:39.096Z,547.00
2023-03-06T02:52:39.133Z,545.00
2023-03-06T02:53:39.159Z,546.00
2023-03-06T02:54:39.180Z,547.00
2023-03-06T02:55:39.218Z,546.00
2023-03-06T02:56:39.250Z,543.00
2023-03-06T02:57:39.288Z,543.00
2023-03-06T02:58:39.334Z,545.00
2023-03-06T02:59:39.366Z,544.00
2023-03-06T03:00:40.170Z,542.00
2023-03-06T03:01:40.128Z,540.00
2023-03-06T03:02:39.494Z,543.00
2023-03-06T03:03:39.526Z,541.00
2023-03-06T03:04:39.650Z,540.00
2023-03-06T03:05:39.631Z,539.00
2023-03-06T03:06:39.638Z,540.00
2023-03-06T03:08:39.728Z,537.00
2023-03-06T03:09:39.767Z,539.00
2023-03-06T03:11:39.827Z,540.00
2023-03-06T03:23:40.593Z,545.00
2023-03-06T03:24:40.373Z,546.00
2023-03-06T03:26:40.409Z,542.00
2023-03-06T03:27:40.519Z,542.00
2023-03-06T03:28:40.563Z,542.00
2023-03-06T03:29:40.526Z,541.00
2023-03-06T03:30:40.575Z,541.00
2023-03-06T03:31:40.690Z,540.00
2023-03-06T03:32:40.639Z,541.00
2023-03-06T03:33:40.672Z,540.00
2023-03-06T03:34:40.708Z,541.00
2023-03-06T03:35:40.767Z,541.00
2023-03-06T03:36:40.808Z,542.00
2023-03-06T03:37:40.821Z,542.00
2023-03-06T03:38:40.872Z,542.00
2023-03-06T03:40:40.950Z,541.00
2023-03-06T03:42:41.056Z,544.00
2023-03-06T06:36:47.758Z,1008.00
2023-03-06T06:37:47.786Z,1019.00
2023-03-06T06:38:47.844Z,1026.00
2023-03-06T06:41:19.094Z,1079.00
2023-03-06T06:42:47.982Z,1139.00
2023-03-06T06:44:48.000Z,1187.00
2023-03-06T06:45:49.545Z,1218.00
2023-03-06T06:48:48.031Z,1408.00
2023-03-06T06:56:48.150Z,1606.00
2023-03-06T06:57:48.040Z,1667.00
2023-03-06T06:58:48.044Z,1735.00
2023-03-06T06:59:48.049Z,1808.00
2023-03-06T07:00:48.090Z,1795.00
2023-03-06T07:01:48.126Z,1878.00
2023-03-06T07:02:48.090Z,1877.00
2023-03-06T07:03:48.148Z,1870.00
2023-03-06T07:05:02.623Z,1864.00
2023-03-06T07:05:49.186Z,1873.00
2023-03-06T07:06:48.125Z,1903.00
2023-03-06T07:07:48.118Z,1997.00
2023-03-06T07:09:48.156Z,2026.00
2023-03-06T07:10:48.140Z,2031.00
2023-03-06T07:11:48.138Z,2016.00
2023-03-06T07:14:48.190Z,2142.00
2023-03-06T07:15:48.655Z,2142.00
2023-03-06T07:16:48.129Z,2147.00
2023-03-06T07:18:48.126Z,2279.00
2023-03-06T07:19:48.187Z,2282.00
2023-03-06T07:20:48.119Z,2282.00
2023-03-06T07:21:48.123Z,2219.00
2023-03-06T07:22:51.686Z,2206.00
2023-03-06T07:23:48.111Z,2201.00
2023-03-06T07:24:48.125Z,2241.00
2023-03-06T07:25:48.127Z,2251.00
2023-03-06T07:26:48.122Z,2256.00
2023-03-06T07:27:53.250Z,2249.00
2023-03-06T07:28:52.725Z,2248.00
2023-03-06T07:29:48.130Z,2249.00
2023-03-06T07:30:48.130Z,2240.00
2023-03-06T07:31:48.229Z,2232.00
2023-03-06T07:32:48.147Z,2224.00
2023-03-06T07:33:48.155Z,2216.00
2023-03-06T07:34:48.154Z,2216.00
2023-03-06T07:35:48.278Z,2219.00
2023-03-06T07:36:48.189Z,2215.00
2023-03-06T07:37:48.268Z,2211.00
2023-03-06T07:38:48.195Z,2209.00
2023-03-06T07:39:48.258Z,2207.00
2023-03-06T07:40:48.224Z,2209.00
2023-03-06T07:41:48.227Z,2207.00
2023-03-06T07:42:48.237Z,2204.00
2023-03-06T07:43:48.256Z,2204.00
2023-03-06T07:44:48.696Z,2205.00
2023-03-06T07:45:48.410Z,2201.00
2023-03-06T07:46:48.513Z,2201.00
2023-03-06T07:47:48.595Z,2204.00
2023-03-06T07:48:48.638Z,2203.00
2023-03-06T07:49:48.735Z,2207.00
2023-03-06T07:50:48.814Z,2206.00
2023-03-06T07:51:48.899Z,2206.00
2023-03-06T07:52:48.978Z,2206.00
2023-03-06T07:53:49.078Z,2198.00
2023-03-06T07:54:49.147Z,2192.00
2023-03-06T07:55:49.709Z,2189.00
2023-03-06T07:56:49.322Z,2180.00
2023-03-06T07:57:49.391Z,2181.00
2023-03-06T07:58:49.471Z,2182.00
2023-03-06T07:59:49.634Z,2177.00
2023-03-06T08:00:49.629Z,2175.00
2023-03-06T08:01:49.718Z,2177.00
2023-03-06T08:02:49.842Z,2176.00
2023-03-06T08:03:50.795Z,2172.00
2023-03-06T08:04:49.975Z,2166.00
2023-03-06T08:05:50.054Z,2164.00
2023-03-06T08:06:50.147Z,2160.00
2023-03-06T08:08:50.303Z,2159.00
2023-03-06T08:09:50.452Z,2160.00
2023-03-06T08:10:50.482Z,2161.00
2023-03-06T08:11:50.581Z,2158.00
2023-03-06T08:12:50.653Z,2154.00
2023-03-06T08:13:50.737Z,2154.00
2023-03-06T08:14:50.818Z,2154.00
2023-03-06T08:15:50.957Z,2150.00
2023-03-06T08:16:50.987Z,2146.00
2023-03-06T08:17:51.093Z,2143.00
2023-03-06T08:18:52.092Z,2144.00
2023-03-06T08:19:51.106Z,2060.00
2023-03-06T08:20:51.116Z,2089.00
2023-03-06T08:22:51.164Z,2079.00
2023-03-06T08:23:51.174Z,2079.00
2023-03-06T08:24:51.197Z,2080.00
2023-03-06T08:25:51.260Z,2073.00
2023-03-06T08:26:51.238Z,2070.00
2023-03-06T08:27:51.281Z,2072.00
2023-03-06T08:28:51.360Z,2081.00
2023-03-06T08:29:51.448Z,2087.00
2023-03-06T08:30:51.514Z,2093.00
2023-03-06T08:31:51.667Z,2096.00
2023-03-06T08:32:51.705Z,2098.00
2023-03-06T08:33:51.780Z,2099.00
2023-03-06T08:34:51.848Z,2099.00
2023-03-06T08:35:51.908Z,2097.00
2023-03-06T08:36:51.973Z,2092.00
2023-03-06T08:37:52.699Z,2089.00
2023-03-06T08:38:52.149Z,2085.00
2023-03-06T08:39:52.235Z,2086.00
2023-03-06T08:40:53.204Z,2093.00
2023-03-06T08:41:52.415Z,2089.00
2023-03-06T08:44:52.664Z,2082.00
2023-03-06T08:45:52.763Z,2084.00
2023-03-06T08:46:52.820Z,2085.00
2023-03-06T08:47:52.904Z,2084.00
2023-03-06T08:48:52.991Z,2083.00
2023-03-06T08:49:53.061Z,2079.00
2023-03-06T08:50:53.139Z,2075.00
2023-03-06T09:40:57.736Z,2018.00
2023-03-06T09:41:57.097Z,2014.00
2023-03-06T09:42:57.722Z,2009.00
2023-03-06T09:43:57.195Z,2009.00
2023-03-06T09:44:57.275Z,2005.00
2023-03-06T09:45:57.410Z,1999.00
2023-03-06T09:46:57.425Z,2001.00
2023-03-06T09:47:57.498Z,2000.00
2023-03-06T09:48:57.580Z,2001.00
2023-03-06T09:49:57.654Z,1999.00
2023-03-06T09:50:58.893Z,2000.00
2023-03-06T09:51:57.814Z,1996.00
2023-03-06T09:52:57.896Z,1993.00
2023-03-06T09:53:57.979Z,1993.00
2023-03-06T09:54:58.072Z,1990.00
2023-03-06T09:55:58.144Z,1988.00
2023-03-06T09:56:58.228Z,1985.00
2023-03-06T09:57:58.298Z,1981.00
2023-03-06T09:58:58.369Z,1979.00
2023-03-06T09:59:58.456Z,1974.00
2023-03-06T10:00:58.534Z,1969.00
2023-03-06T10:01:58.633Z,1969.00
2023-03-06T10:02:58.772Z,1970.00
2023-03-06T10:03:58.759Z,1967.00
2023-03-06T10:04:58.923Z,1969.00
2023-03-06T10:06:00.879Z,1969.00
2023-03-06T10:06:58.936Z,1973.00
2023-03-06T10:07:58.948Z,1974.00
2023-03-06T10:08:59.027Z,1976.00
2023-03-06T10:09:58.960Z,1972.00
2023-03-06T10:10:58.962Z,1967.00
2023-03-06T10:11:58.970Z,1964.00
2023-03-06T10:12:58.997Z,1962.00
2023-03-06T10:13:59.018Z,1959.00
2023-03-06T10:14:59.016Z,1958.00
2023-03-06T10:15:59.054Z,1954.00
2023-03-06T10:16:59.036Z,1948.00
2023-03-06T10:17:59.052Z,2009.00
2023-03-06T10:18:59.056Z,2010.00
2023-03-06T10:19:59.074Z,2086.00
2023-03-06T10:21:04.748Z,2076.00
2023-03-06T10:22:00.104Z,2063.00
2023-03-06T10:23:03.135Z,2223.00
2023-03-06T10:24:00.100Z,2217.00
2023-03-06T10:24:59.110Z,2241.00
2023-03-06T10:25:59.089Z,2699.00
2023-03-06T10:26:59.203Z,2594.00
2023-03-06T10:27:59.088Z,2470.00
2023-03-06T10:28:59.081Z,2449.00
2023-03-06T10:30:03.053Z,2442.00
2023-03-06T10:30:59.193Z,2431.00
2023-03-06T10:31:59.090Z,2452.00
2023-03-06T10:32:59.118Z,2510.00
2023-03-06T10:33:59.055Z,2559.00
2023-03-06T10:34:59.046Z,2575.00
2023-03-06T10:35:59.713Z,2574.00
2023-03-06T10:36:59.023Z,2573.00
2023-03-06T10:37:59.034Z,2727.00
2023-03-06T10:38:59.020Z,3012.00
2023-03-06T10:39:59.796Z,2766.00
2023-03-06T10:40:58.984Z,2756.00
2023-03-06T10:41:58.971Z,2863.00
2023-03-06T10:43:11.118Z,2860.00
2023-03-06T10:43:59.971Z,2856.00
2023-03-06T10:44:58.955Z,2884.00
2023-03-06T10:45:58.967Z,2951.00
2023-03-06T10:46:58.930Z,2941.00
2023-03-06T10:47:58.905Z,2936.00
2023-03-06T10:48:58.929Z,2941.00
2023-03-06T10:49:58.900Z,2938.00
2023-03-06T10:51:01.105Z,2963.00
2023-03-06T10:51:59.803Z,2996.00
2023-03-06T10:52:58.857Z,3002.00
2023-03-06T10:54:58.856Z,3031.00
2023-03-06T10:55:58.862Z,3052.00
2023-03-06T10:56:58.830Z,3096.00
2023-03-06T10:57:58.819Z,3241.00
2023-03-06T10:58:58.805Z,3252.00
2023-03-06T10:59:58.799Z,3272.00
2023-03-06T12:34:03.292Z,3102.00
2023-03-06T12:35:05.858Z,3106.00
2023-03-06T12:36:03.433Z,3101.00
2023-03-06T12:37:03.385Z,3097.00
2023-03-06T12:38:03.412Z,3099.00
2023-03-06T12:39:03.413Z,3096.00
2023-03-06T12:40:03.428Z,3091.00
2023-03-06T12:41:03.449Z,3085.00
2023-03-06T12:42:04.957Z,3078.00
2023-03-06T12:43:03.472Z,3075.00
2023-03-06T12:44:03.486Z,3073.00
2023-03-06T12:45:03.497Z,3071.00
2023-03-06T12:46:03.571Z,3062.00
2023-03-06T12:47:03.527Z,3058.00
2023-03-06T12:48:03.545Z,3052.00
2023-03-06T12:49:03.561Z,3045.00
2023-03-06T12:50:03.666Z,3041.00
2023-03-06T12:51:03.592Z,3038.00
2023-03-06T12:52:03.614Z,3035.00
2023-03-06T12:53:03.630Z,3034.00
2023-03-06T12:54:03.628Z,3035.00
2023-03-06T12:55:03.640Z,3040.00
2023-03-06T12:56:03.659Z,3038.00
2023-03-06T12:57:03.687Z,3035.00
2023-03-06T12:58:03.768Z,3031.00
2023-03-06T12:59:03.844Z,3027.00
2023-03-06T13:00:03.922Z,3024.00
2023-03-06T13:01:04.659Z,3019.00
2023-03-06T13:02:04.113Z,3022.00
2023-03-06T13:03:04.165Z,3013.00
2023-03-06T13:04:04.243Z,3004.00
2023-03-06T13:05:04.312Z,3001.00
2023-03-06T13:06:04.805Z,2995.00
2023-03-06T13:07:04.464Z,2995.00
2023-03-06T13:08:04.550Z,2989.00
2023-03-06T13:09:04.680Z,2987.00
2023-03-06T13:10:04.767Z,2989.00
2023-03-06T13:11:05.307Z,2978.00
2023-03-06T13:12:04.875Z,2971.00
2023-03-06T13:13:05.002Z,2965.00
2023-03-06T13:14:05.039Z,2963.00
2023-03-06T13:15:05.117Z,2964.00
2023-03-06T13:16:05.206Z,2963.00
2023-03-06T13:17:05.275Z,2955.00
2023-03-06T13:18:05.358Z,2952.00
2023-03-06T13:19:05.433Z,2954.00
2023-03-06T13:20:05.514Z,2951.00
2023-03-06T13:21:05.597Z,2950.00
2023-03-06T13:22:05.662Z,2948.00
2023-03-06T13:23:05.747Z,2948.00
2023-03-06T13:24:05.842Z,2951.00
2023-03-06T13:25:08.487Z,2944.00
2023-03-06T13:26:06.203Z,2938.00
2023-03-06T13:27:06.241Z,2931.00
2023-03-06T13:28:06.319Z,2926.00
2023-03-06T13:29:06.390Z,2920.00
2023-03-06T13:30:06.465Z,2910.00
2023-03-06T13:31:10.605Z,2904.00
2023-03-06T13:33:06.580Z,2885.00
2023-03-06T13:34:06.602Z,2884.00
2023-03-06T13:35:06.611Z,2879.00
2023-03-06T13:36:06.701Z,2875.00
2023-03-06T13:37:06.639Z,2868.00
2023-03-06T13:38:06.649Z,2866.00
2023-03-06T13:39:06.681Z,2867.00
2023-03-06T13:40:06.691Z,2859.00
2023-03-06T13:41:06.759Z,2861.00
2023-03-06T13:42:06.843Z,2856.00
2023-03-06T13:43:06.937Z,2855.00
2023-03-06T13:44:07.312Z,2850.00
2023-03-06T13:45:07.105Z,2843.00
2023-03-06T13:46:07.239Z,2840.00
2023-03-06T13:47:07.274Z,2836.00
2023-03-06T13:48:30.256Z,2834.00
2023-03-06T13:50:07.397Z,2833.00
2023-03-06T13:51:07.428Z,2832.00
2023-03-06T13:52:07.445Z,2831.00
2023-03-06T13:53:07.454Z,2825.00
2023-03-06T13:54:07.528Z,2823.00
2023-03-06T13:55:07.500Z,2818.00
2023-03-06T13:56:07.517Z,2815.00
2023-03-06T13:57:07.579Z,2810.00
2023-03-06T13:58:07.671Z,2804.00
2023-03-06T13:59:07.748Z,2793.00
2023-03-06T14:00:09.459Z,2793.00
2023-03-06T14:01:08.010Z,2788.00
2023-03-06T14:02:08.002Z,2787.00
2023-03-06T14:03:08.092Z,2786.00
2023-03-06T14:04:08.187Z,2784.00
2023-03-06T14:05:08.272Z,2781.00
2023-03-06T14:06:08.358Z,2778.00
2023-03-06T14:08:08.587Z,2780.00
2023-03-06T15:00:13.356Z,2643.00
2023-03-06T15:06:13.340Z,2619.00
2023-03-06T15:07:13.442Z,2617.00
2023-03-06T15:08:13.445Z,2613.00
2023-03-06T15:29:14.920Z,2556.00
2023-03-06T15:43:15.702Z,2525.00
2023-03-06T15:44:15.729Z,2517.00
2023-03-06T15:45:15.797Z,2515.00
2023-03-06T15:46:15.804Z,2514.00
2023-03-06T15:47:15.836Z,2512.00
2023-03-06T15:48:15.861Z,2511.00
2023-03-06T15:49:15.904Z,2511.00
2023-03-06T15:50:15.912Z,2507.00
2023-03-06T15:52:15.977Z,2509.00
2023-03-06T15:53:15.997Z,2509.00
2023-03-06T15:54:16.035Z,2504.00
2023-03-06T15:55:16.068Z,2508.00
2023-03-06T15:56:16.362Z,2506.00
2023-03-06T15:57:16.116Z,2501.00
2023-03-06T15:58:16.188Z,2501.00
2023-03-06T15:59:16.189Z,2499.00
2023-03-06T16:00:26.882Z,2494.00
2023-03-06T16:02:16.446Z,2489.00
2023-03-06T16:03:16.493Z,2485.00
2023-03-06T16:04:16.585Z,2482.00
2023-03-06T16:05:16.598Z,2481.00
2023-03-06T16:06:16.628Z,2479.00
2023-03-06T16:07:16.660Z,2479.00
2023-03-06T16:08:16.704Z,2479.00
2023-03-06T16:09:16.738Z,2481.00
2023-03-06T16:10:16.773Z,2474.00
2023-03-06T16:11:16.801Z,2471.00
2023-03-06T16:12:16.837Z,2467.00
2023-03-06T16:13:16.860Z,2460.00
2023-03-06T16:14:16.886Z,2458.00
2023-03-06T16:15:16.929Z,2455.00
2023-03-06T16:16:17.009Z,2457.00
2023-03-06T16:17:17.001Z,2457.00
2023-03-06T16:18:17.106Z,2457.00
2023-03-06T16:19:26.021Z,2459.00
2023-03-06T16:20:18.097Z,2457.00
2023-03-06T16:21:17.104Z,2454.00
2023-03-06T16:22:17.127Z,2455.00
2023-03-06T16:23:17.864Z,2451.00
2023-03-06T16:24:17.162Z,2445.00
2023-03-06T16:25:17.184Z,2441.00
2023-03-06T16:26:17.216Z,2434.00
2023-03-06T16:27:17.234Z,2424.00
2023-03-06T16:28:17.268Z,2421.00
2023-03-06T16:29:17.272Z,2298.00
2023-03-06T16:30:17.294Z,2298.00
2023-03-06T16:31:17.407Z,2320.00
2023-03-06T16:32:17.376Z,2136.00
2023-03-06T16:33:17.363Z,2201.00
2023-03-06T16:34:17.377Z,2125.00
2023-03-06T16:35:17.509Z,2180.00
2023-03-06T16:36:17.422Z,2182.00
2023-03-06T16:37:17.461Z,2215.00
2023-03-06T16:38:18.361Z,2212.00
2023-03-06T16:39:17.517Z,2217.00
2023-03-06T16:40:17.534Z,2214.00
2023-03-06T16:41:17.540Z,2217.00
2023-03-06T16:42:17.581Z,2220.00
2023-03-06T16:43:17.586Z,2219.00
2023-03-06T16:44:17.610Z,2018.00
2023-03-06T16:45:17.653Z,1999.00
2023-03-06T16:46:17.730Z,2068.00
2023-03-06T16:47:17.681Z,2141.00
2023-03-06T16:48:17.738Z,2175.00
2023-03-06T16:49:17.781Z,2210.00
2023-03-06T16:50:17.828Z,2218.00
2023-03-06T16:51:17.795Z,2219.00
2023-03-06T16:52:17.822Z,2222.00
2023-03-06T16:53:17.826Z,2221.00
2023-03-06T16:54:17.908Z,2217.00
2023-03-06T16:55:17.876Z,2219.00
2023-03-06T16:56:17.913Z,2214.00
2023-03-06T16:57:17.956Z,2213.00
2023-03-06T16:58:18.001Z,2214.00
2023-03-06T16:59:18.073Z,2213.00
2023-03-06T17:00:18.085Z,2211.00
2023-03-06T17:01:18.163Z,2208.00
2023-03-06T17:02:18.187Z,2209.00
2023-03-06T17:03:18.283Z,2210.00
2023-03-06T17:04:18.245Z,2210.00
2023-03-06T17:05:18.296Z,2210.00
2023-03-06T17:06:18.330Z,2209.00
2023-03-06T17:07:18.377Z,2207.00
2023-03-06T17:08:18.422Z,2203.00
2023-03-06T17:09:18.477Z,2198.00
2023-03-06T17:10:18.507Z,2198.00
2023-03-06T17:11:18.551Z,2196.00
2023-03-06T17:12:18.605Z,2195.00
2023-03-06T17:13:18.701Z,2193.00
2023-03-06T17:14:18.676Z,2190.00
2023-03-06T17:15:18.787Z,2191.00
2023-03-06T17:16:18.878Z,2190.00
2023-03-06T17:17:18.809Z,2187.00
2023-03-06T17:18:18.853Z,2187.00
2023-03-06T17:19:18.890Z,2185.00
2023-03-06T17:20:18.943Z,2183.00
2023-03-06T17:21:19.004Z,2185.00
2023-03-06T17:22:19.045Z,2186.00
2023-03-06T18:30:23.406Z,2103.00
2023-03-06T18:43:23.344Z,2093.00
2023-03-06T18:44:23.312Z,2092.00
2023-03-06T18:45:23.367Z,2089.00
2023-03-06T18:46:24.414Z,2087.00
2023-03-06T18:47:23.484Z,2086.00
2023-03-06T18:48:23.922Z,2086.00
2023-03-06T18:49:23.600Z,2086.00
2023-03-06T18:50:23.665Z,2085.00
2023-03-06T18:51:23.723Z,2084.00
2023-03-06T18:52:24.418Z,2085.00
2023-03-06T18:53:23.849Z,2085.00
2023-03-06T18:54:23.901Z,2089.00
2023-03-06T18:55:23.962Z,2087.00
2023-03-06T18:56:24.025Z,2084.00
2023-03-06T18:57:24.084Z,2082.00
2023-03-06T18:58:24.938Z,2080.00
2023-03-06T18:59:24.210Z,2078.00
2023-03-06T19:00:24.300Z,2079.00
2023-03-06T19:01:24.406Z,2078.00
2023-03-06T19:02:24.388Z,2078.00
2023-03-06T19:03:24.450Z,2075.00
2023-03-06T19:04:24.578Z,2071.00
2023-03-06T19:05:25.416Z,2071.00
2023-03-06T19:06:26.979Z,2074.00
2023-03-06T19:07:24.668Z,2072.00
2023-03-06T19:08:24.701Z,2071.00
2023-03-06T19:09:24.725Z,2069.00
2023-03-06T19:10:24.751Z,2071.00
2023-03-06T19:11:24.783Z,2064.00
2023-03-06T19:12:24.841Z,2062.00
2023-03-06T19:13:24.853Z,2063.00
2023-03-06T19:14:24.900Z,2063.00
2023-03-06T19:15:24.917Z,2059.00
2023-03-06T19:16:26.032Z,2056.00
2023-03-06T19:17:25.137Z,2056.00
2023-03-06T19:18:25.044Z,2059.00
2023-03-06T19:19:25.054Z,2064.00
2023-03-06T19:20:25.106Z,2063.00
2023-03-06T19:21:25.436Z,2057.00
2023-03-06T19:22:25.174Z,2055.00
2023-03-06T19:23:25.208Z,2054.00
2023-03-06T19:24:25.242Z,2050.00
2023-03-06T19:25:25.291Z,2049.00
2023-03-06T19:26:25.360Z,2048.00
2023-03-06T19:27:25.343Z,2045.00
2023-03-06T19:28:25.373Z,2042.00
2023-03-06T19:29:25.404Z,2047.00
2023-03-06T19:30:25.470Z,2044.00
2023-03-06T19:31:25.536Z,2044.00
2023-03-06T19:32:25.558Z,2038.00
2023-03-06T19:33:25.529Z,2040.00
2023-03-06T19:34:25.565Z,2035.00
2023-03-06T19:35:25.613Z,2037.00
2023-03-06T19:36:25.606Z,2033.00
2023-03-06T19:37:25.645Z,2031.00
2023-03-06T19:38:25.689Z,2028.00
2023-03-06T19:39:25.720Z,2023.00
2023-03-06T19:40:25.746Z,2023.00
2023-03-06T19:41:25.775Z,2026.00
2023-03-06T19:42:25.808Z,2028.00
2023-03-06T19:43:25.837Z,2027.00
2023-03-06T19:44:25.855Z,2026.00
2023-03-06T19:45:25.975Z,2023.00
2023-03-06T19:46:25.919Z,2019.00
2023-03-06T19:47:25.972Z,2014.00
2023-03-06T19:48:25.989Z,2012.00
2023-03-06T19:49:26.052Z,2010.00
2023-03-06T19:50:26.055Z,2012.00
2023-03-06T19:51:26.126Z,2014.00
2023-03-06T19:52:26.101Z,2017.00
2023-03-06T19:53:26.483Z,2019.00
2023-03-06T19:54:26.177Z,2019.00
2023-03-06T19:55:26.234Z,2017.00
2023-03-06T19:56:26.409Z,2017.00
2023-03-06T19:57:26.264Z,2014.00
2023-03-06T19:58:26.290Z,2010.00
2023-03-06T19:59:26.355Z,2010.00
2023-03-06T20:00:26.415Z,2004.00
2023-03-06T20:01:26.517Z,2001.00
2023-03-06T20:02:26.548Z,1998.00
2023-03-06T20:03:26.615Z,1996.00
2023-03-06T20:04:26.811Z,1996.00
2023-03-06T20:05:26.748Z,1994.00
2023-03-06T20:06:26.806Z,1996.00
2023-03-06T20:07:26.877Z,1998.00
2023-03-06T20:08:26.945Z,1997.00
2023-03-06T20:09:27.460Z,1996.00
2023-03-06T20:10:27.067Z,1999.00
2023-03-06T20:11:27.158Z,1998.00
2023-03-06T20:12:27.218Z,1994.00
2023-03-06T21:28:32.620Z,1889.00
2023-03-06T21:29:32.696Z,1887.00
2023-03-06T21:30:32.767Z,1888.00
2023-03-06T21:31:32.867Z,1884.00
2023-03-06T21:32:32.944Z,1885.00
2023-03-06T21:33:32.984Z,1884.00
2023-03-06T21:34:33.048Z,1881.00
2023-03-06T21:35:33.142Z,1882.00
2023-03-06T21:38:33.426Z,1877.00
2023-03-06T21:39:33.484Z,1876.00
2023-03-06T21:40:33.479Z,1875.00
2023-03-06T21:41:33.640Z,1870.00
2023-03-06T21:42:34.527Z,1863.00
2023-03-06T21:43:33.717Z,1863.00
2023-03-06T21:44:33.783Z,1863.00
2023-03-06T21:45:33.893Z,1862.00
2023-03-06T21:46:33.932Z,1862.00
2023-03-06T21:47:34.021Z,1862.00
2023-03-06T21:49:34.155Z,1864.00
2023-03-06T21:50:34.237Z,1863.00
2023-03-06T21:51:34.308Z,1860.00
2023-03-06T21:52:34.392Z,1860.00
2023-03-06T21:53:34.449Z,1862.00
2023-03-06T21:54:34.520Z,1862.00
2023-03-06T21:55:34.637Z,1863.00
2023-03-06T21:56:34.656Z,1860.00
2023-03-06T21:57:34.727Z,1859.00
2023-03-06T21:58:34.824Z,1859.00
2023-03-06T21:59:34.873Z,1856.00
2023-03-06T22:00:34.995Z,1853.00
2023-03-06T22:01:35.012Z,1851.00
2023-03-06T22:02:35.099Z,1849.00
2023-03-06T23:46:43.280Z,1734.00
2023-03-06T23:47:43.365Z,1730.00
2023-03-06T23:48:43.446Z,1724.00
2023-03-06T23:49:43.529Z,1721.00
2023-03-06T23:50:43.593Z,1721.00
2023-03-06T23:51:43.667Z,1723.00
2023-03-06T23:53:43.832Z,1720.00
